createdAt,value
2022-07-28T00:00:44.057Z,101889.31
2022-07-28T00:03:11.232Z,101884.50
2022-07-28T00:05:37.876Z,101886.78
2022-07-28T00:08:05.416Z,101883.88
2022-07-28T00:10:32.401Z,101893.53
2022-07-28T00:12:59.999Z,101883.47
2022-07-28T00:15:27.479Z,101878.84
2022-07-28T00:17:54.035Z,101883.84
2022-07-28T00:20:21.337Z,101890.16
2022-07-28T00:22:47.931Z,101883.00
2022-07-28T00:25:15.419Z,101888.59
2022-07-28T00:27:42.065Z,101883.38
2022-07-28T00:30:10.032Z,101890.13
2022-07-28T00:32:37.747Z,101892.25
2022-07-28T00:35:05.182Z,101896.84
2022-07-28T00:37:34.999Z,101891.22
2022-07-28T00:40:01.612Z,101892.03
2022-07-28T00:42:28.109Z,101893.72
2022-07-28T00:44:54.663Z,101885.94
2022-07-28T00:47:21.200Z,101887.41
2022-07-28T00:49:48.383Z,101892.69
2022-07-28T00:52:17.061Z,101898.97
2022-07-28T00:54:44.084Z,101884.28
2022-07-28T00:57:10.579Z,101890.16
2022-07-28T00:59:37.138Z,101887.66
2022-07-28T01:02:05.257Z,101889.53
2022-07-28T01:04:31.972Z,101895.63
2022-07-28T01:07:15.222Z,101884.28
2022-07-28T01:10:12.991Z,101885.31
2022-07-28T01:12:55.745Z,101891.22
2022-07-28T01:15:36.776Z,101888.03
2022-07-28T01:18:11.758Z,101891.41
2022-07-28T01:20:54.993Z,101881.75
2022-07-28T01:23:27.375Z,101879.22
2022-07-28T01:26:31.411Z,101881.75
2022-07-28T01:29:35.470Z,101885.97
2022-07-28T01:32:23.822Z,101889.94
2022-07-28T01:35:05.516Z,101888.47
2022-07-28T01:37:33.852Z,101895.16
2022-07-28T01:40:05.463Z,101888.03
2022-07-28T01:42:37.213Z,101892.66
2022-07-28T01:45:04.552Z,101900.16
2022-07-28T01:47:33.049Z,101901.44
2022-07-28T01:50:03.228Z,101902.41
2022-07-28T01:52:31.370Z,101891.31
2022-07-28T01:55:00.581Z,101899.69
2022-07-28T01:57:30.270Z,101894.22
2022-07-28T01:59:57.885Z,101891.50
2022-07-28T02:02:27.037Z,101892.13
2022-07-28T02:04:57.406Z,101894.41
2022-07-28T02:07:26.313Z,101894.19
2022-07-28T02:09:54.833Z,101888.72
2022-07-28T02:12:23.077Z,101884.94
2022-07-28T02:14:50.692Z,101885.81
2022-07-28T02:17:20.942Z,101885.34
2022-07-28T02:19:49.181Z,101880.53
2022-07-28T02:22:17.002Z,101891.19
2022-07-28T02:24:45.463Z,101888.66
2022-07-28T02:27:19.592Z,101881.56
2022-07-28T02:29:51.725Z,101881.13
2022-07-28T02:32:29.276Z,101878.66
2022-07-28T02:35:02.895Z,101881.19
2022-07-28T02:37:37.680Z,101883.06
2022-07-28T02:40:08.715Z,101887.94
2022-07-28T02:42:36.835Z,101891.66
2022-07-28T02:45:06.843Z,101886.66
2022-07-28T02:47:40.237Z,101875.34
2022-07-28T02:50:08.282Z,101884.22
2022-07-28T02:52:35.882Z,101882.06
2022-07-28T02:55:03.610Z,101883.75
2022-07-28T02:57:31.143Z,101882.91
2022-07-28T02:59:58.509Z,101894.91
2022-07-28T03:02:25.917Z,101892.41
2022-07-28T03:04:59.495Z,101896.38
2022-07-28T03:07:34.437Z,101899.28
2022-07-28T03:10:00.972Z,101899.72
2022-07-28T03:12:27.959Z,101900.97
2022-07-28T03:14:55.130Z,101896.81
2022-07-28T03:17:22.563Z,101907.28
2022-07-28T03:19:49.252Z,101900.94
2022-07-28T03:22:16.137Z,101902.00
2022-07-28T03:24:46.704Z,101904.06
2022-07-28T03:27:31.172Z,101912.53
2022-07-28T03:30:15.370Z,101912.72
2022-07-28T03:32:47.047Z,101913.00
2022-07-28T03:35:14.690Z,101916.78
2022-07-28T03:38:00.474Z,101908.59
2022-07-28T03:40:29.927Z,101917.81
2022-07-28T03:42:57.940Z,101915.72
2022-07-28T03:45:24.932Z,101916.97
2022-07-28T03:47:56.266Z,101922.25
2022-07-28T03:50:24.742Z,101923.06
2022-07-28T03:52:52.057Z,101926.63
2022-07-28T03:55:18.913Z,101918.41
2022-07-28T03:57:46.509Z,101921.75
2022-07-28T04:00:15.056Z,101927.19
2022-07-28T04:02:44.989Z,101925.88
2022-07-28T04:05:13.401Z,101922.06
2022-07-28T04:07:41.040Z,101928.78
2022-07-28T04:10:09.489Z,101929.38
2022-07-28T04:12:47.555Z,101933.56
2022-07-28T04:15:14.969Z,101935.44
2022-07-28T04:17:42.718Z,101932.66
2022-07-28T04:20:10.094Z,101935.38
2022-07-28T04:22:37.337Z,101936.38
2022-07-28T04:25:04.657Z,101939.88
2022-07-28T04:27:31.268Z,101933.91
2022-07-28T04:29:57.879Z,101934.13
2022-07-28T04:32:24.397Z,101933.50
2022-07-28T04:34:50.897Z,101943.38
2022-07-28T04:37:17.450Z,101943.75
2022-07-28T04:39:44.199Z,101942.03
2022-07-28T04:42:11.574Z,101942.66
2022-07-28T04:44:42.378Z,101936.56
2022-07-28T04:47:09.374Z,101940.28
2022-07-28T04:49:35.914Z,101935.44
2022-07-28T04:52:03.475Z,101933.28
2022-07-28T04:54:30.258Z,101939.50
2022-07-28T04:56:56.776Z,101941.59
2022-07-28T04:59:23.309Z,101949.34
2022-07-28T05:01:51.638Z,101944.66
2022-07-28T05:04:18.742Z,101943.75
2022-07-28T05:06:45.673Z,101941.63
2022-07-28T05:09:12.227Z,101936.75
2022-07-28T05:11:39.084Z,101939.44
2022-07-28T05:14:05.671Z,101942.72
2022-07-28T05:16:32.452Z,101944.56
2022-07-28T05:19:00.632Z,101944.03
2022-07-28T05:21:27.367Z,101937.63
2022-07-28T05:23:53.883Z,101943.34
2022-07-28T05:26:20.507Z,101947.78
2022-07-28T05:28:47.052Z,101954.47
2022-07-28T05:31:14.470Z,101956.53
2022-07-28T05:33:41.381Z,101950.81
2022-07-28T05:36:08.278Z,101952.66
2022-07-28T05:38:34.749Z,101952.19
2022-07-28T05:41:01.393Z,101961.16
2022-07-28T05:43:27.908Z,101957.34
2022-07-28T05:45:54.427Z,101965.72
2022-07-28T05:48:22.595Z,101970.28
2022-07-28T05:50:50.035Z,101961.00
2022-07-28T05:53:17.623Z,101969.38
2022-07-28T05:55:57.804Z,101968.53
2022-07-28T05:58:27.487Z,101970.81
2022-07-28T06:00:54.095Z,101965.88
2022-07-28T06:03:20.627Z,101973.34
2022-07-28T06:05:59.508Z,101967.47
2022-07-28T06:08:34.072Z,101970.13
2022-07-28T06:11:09.389Z,101973.84
2022-07-28T06:13:36.635Z,101977.31
2022-07-28T06:16:12.607Z,101979.97
2022-07-28T06:18:39.824Z,101976.31
2022-07-28T06:21:06.395Z,101974.06
2022-07-28T06:23:32.997Z,101979.22
2022-07-28T06:25:59.593Z,101971.09
2022-07-28T06:28:26.120Z,101981.25
2022-07-28T06:30:52.686Z,101979.03
2022-07-28T06:33:19.340Z,101980.59
2022-07-28T06:35:51.327Z,101978.56
2022-07-28T06:38:20.493Z,101985.97
2022-07-28T06:40:47.788Z,101990.75
2022-07-28T06:43:14.771Z,101990.91
2022-07-28T06:45:41.427Z,101991.59
2022-07-28T06:48:08.846Z,101992.81
2022-07-28T06:50:39.228Z,101995.69
2022-07-28T06:53:06.106Z,102007.50
2022-07-28T06:55:35.670Z,102000.84
2022-07-28T06:58:05.541Z,102001.56
2022-07-28T07:00:32.319Z,102001.66
2022-07-28T07:03:00.620Z,102003.47
2022-07-28T07:05:30.001Z,101997.34
2022-07-28T07:07:56.766Z,102006.41
2022-07-28T07:10:23.629Z,102002.22
2022-07-28T07:12:50.433Z,102006.03
2022-07-28T07:15:16.939Z,102012.38
2022-07-28T07:17:43.777Z,102010.59
2022-07-28T07:20:13.406Z,102009.19
2022-07-28T07:22:44.710Z,102011.97
2022-07-28T07:25:16.694Z,102003.63
2022-07-28T07:27:43.681Z,102007.91
2022-07-28T07:30:11.412Z,102006.84
2022-07-28T07:32:38.180Z,102008.22
2022-07-28T07:35:06.189Z,102012.59
2022-07-28T07:37:32.890Z,102006.78
2022-07-28T07:40:04.894Z,102015.75
2022-07-28T07:42:31.610Z,102012.00
2022-07-28T07:44:58.153Z,102017.13
2022-07-28T07:47:24.720Z,102010.66
2022-07-28T07:49:51.725Z,102017.00
2022-07-28T07:52:18.333Z,102013.78
2022-07-28T07:54:45.563Z,102011.28
2022-07-28T07:57:12.212Z,102014.72
2022-07-28T07:59:38.707Z,102013.97
2022-07-28T08:02:05.837Z,102020.81
2022-07-28T08:04:37.500Z,102013.47
2022-07-28T08:07:05.539Z,102016.25
2022-07-28T08:09:32.671Z,102017.75
2022-07-28T08:11:59.202Z,102020.88
2022-07-28T08:14:25.860Z,102026.91
2022-07-28T08:16:52.719Z,102016.53
2022-07-28T08:19:21.591Z,102020.38
2022-07-28T08:21:48.564Z,102020.63
2022-07-28T08:24:27.641Z,102018.28
2022-07-28T08:26:59.743Z,102018.72
2022-07-28T08:29:26.381Z,102012.22
2022-07-28T08:31:52.967Z,102023.00
2022-07-28T08:34:31.083Z,102009.59
2022-07-28T08:37:02.704Z,102018.81
2022-07-28T08:39:30.408Z,102020.63
2022-07-28T08:42:07.116Z,102017.34
2022-07-28T08:44:41.186Z,102026.41
2022-07-28T08:47:11.178Z,102022.81
2022-07-28T08:49:41.964Z,102016.78
2022-07-28T08:52:12.619Z,102014.97
2022-07-28T08:54:46.144Z,102022.44
2022-07-28T08:57:28.237Z,102008.81
2022-07-28T08:59:54.962Z,102011.13
2022-07-28T09:02:22.475Z,102008.03
2022-07-28T09:04:49.484Z,102001.69
2022-07-28T09:07:16.554Z,102013.94
2022-07-28T09:09:43.841Z,102009.50
2022-07-28T09:12:10.449Z,102007.69
2022-07-28T09:14:37.062Z,102004.28
2022-07-28T09:17:05.324Z,102013.84
2022-07-28T09:19:34.409Z,102008.78
2022-07-28T09:22:02.440Z,101997.50
2022-07-28T09:24:36.311Z,102004.06
2022-07-28T09:27:11.255Z,102002.84
2022-07-28T09:29:39.832Z,102003.31
2022-07-28T09:32:07.620Z,101998.94
2022-07-28T09:34:48.647Z,102000.94
2022-07-28T09:37:27.420Z,102009.13
2022-07-28T09:40:00.307Z,102010.75
2022-07-28T09:42:44.533Z,102008.59
2022-07-28T09:45:26.511Z,102006.72
2022-07-28T09:48:14.350Z,102001.19
2022-07-28T09:50:42.458Z,102004.94
2022-07-28T09:53:23.885Z,102010.16
2022-07-28T09:56:03.174Z,102012.88
2022-07-28T09:58:30.646Z,102012.50
2022-07-28T10:01:04.316Z,102002.75
2022-07-28T10:03:31.177Z,102009.75
2022-07-28T10:05:59.157Z,102012.00
2022-07-28T10:08:44.059Z,102008.00
2022-07-28T10:11:12.388Z,102002.75
2022-07-28T10:14:13.712Z,102015.91
2022-07-28T10:16:44.417Z,102007.06
2022-07-28T10:19:11.149Z,102008.03
2022-07-28T10:21:46.454Z,102002.66
2022-07-28T10:24:23.073Z,102001.72
2022-07-28T10:26:52.563Z,102006.28
2022-07-28T10:29:21.792Z,102005.84
2022-07-28T10:31:53.619Z,102004.34
2022-07-28T10:35:00.041Z,102021.94
2022-07-28T10:37:28.418Z,102008.13
2022-07-28T10:40:07.786Z,102010.78
2022-07-28T10:42:36.635Z,102006.63
2022-07-28T10:45:04.446Z,102004.16
2022-07-28T10:47:35.861Z,102004.75
2022-07-28T10:50:04.332Z,102005.25
2022-07-28T10:52:50.030Z,102004.97
2022-07-28T10:55:21.670Z,102001.34
2022-07-28T10:58:27.526Z,101990.59
2022-07-28T11:00:58.424Z,101989.91
2022-07-28T11:03:40.537Z,101993.53
2022-07-28T11:06:26.369Z,101992.56
2022-07-28T11:08:55.528Z,101989.84
2022-07-28T11:11:46.744Z,101992.53
2022-07-28T11:14:30.777Z,101987.63
2022-07-28T11:17:00.109Z,101993.66
2022-07-28T11:19:39.990Z,101997.84
2022-07-28T11:22:19.573Z,102000.19
2022-07-28T11:24:58.047Z,101997.78
2022-07-28T11:27:40.291Z,101995.63
2022-07-28T11:30:11.720Z,101990.13
2022-07-28T11:32:50.077Z,101986.97
2022-07-28T11:35:39.774Z,101988.59
2022-07-28T11:38:07.906Z,101993.50
2022-07-28T11:40:44.714Z,101996.31
2022-07-28T11:43:37.579Z,101998.13
2022-07-28T11:46:09.463Z,101988.09
2022-07-28T11:48:46.961Z,101990.72
2022-07-28T11:51:14.602Z,101993.72
2022-07-28T11:53:49.433Z,101991.88
2022-07-28T11:56:23.854Z,101991.53
2022-07-28T11:59:02.003Z,101984.19
2022-07-28T12:01:32.023Z,101993.41
2022-07-28T12:04:00.092Z,101995.19
2022-07-28T12:06:37.727Z,101990.13
2022-07-28T12:09:06.433Z,101991.66
2022-07-28T12:11:37.899Z,101990.75
2022-07-28T12:14:12.521Z,101984.84
2022-07-28T12:16:41.637Z,101989.50
2022-07-28T12:19:10.100Z,101991.84
2022-07-28T12:21:46.262Z,101993.50
2022-07-28T12:24:16.825Z,101983.19
2022-07-28T12:26:49.713Z,101994.22
2022-07-28T12:29:17.425Z,101992.56
2022-07-28T12:32:02.060Z,101986.50
2022-07-28T12:34:31.247Z,101987.06
2022-07-28T12:37:02.271Z,101980.75
2022-07-28T12:39:30.934Z,101987.41
2022-07-28T12:42:05.698Z,101980.78
2022-07-28T12:44:39.733Z,101981.63
2022-07-28T12:47:08.919Z,101977.78
2022-07-28T12:49:37.046Z,101977.81
2022-07-28T12:52:23.767Z,101971.72
2022-07-28T12:54:56.202Z,101980.31
2022-07-28T12:57:49.444Z,101982.81
2022-07-28T13:00:19.518Z,101988.91
2022-07-28T13:02:47.285Z,101982.53
2022-07-28T13:05:54.423Z,101979.50
2022-07-28T13:08:22.348Z,101979.16
2022-07-28T13:10:51.674Z,101970.34
2022-07-28T13:13:22.321Z,101972.22
2022-07-28T13:16:20.927Z,101972.00
2022-07-28T13:18:53.560Z,101972.81
2022-07-28T13:21:58.119Z,101967.03
2022-07-28T13:24:27.986Z,101973.94
2022-07-28T13:26:54.852Z,101967.50
2022-07-28T13:29:22.416Z,101966.06
2022-07-28T13:31:49.392Z,101960.81
2022-07-28T13:34:16.691Z,101965.03
2022-07-28T13:36:43.507Z,101960.59
2022-07-28T13:39:14.271Z,101959.47
2022-07-28T13:41:56.502Z,101962.25
2022-07-28T13:44:25.092Z,101962.00
2022-07-28T13:46:51.721Z,101955.59
2022-07-28T13:49:21.232Z,101954.47
2022-07-28T13:51:48.927Z,101961.44
2022-07-28T13:54:18.248Z,101953.94
2022-07-28T13:56:45.312Z,101953.91
2022-07-28T13:59:13.712Z,101950.56
2022-07-28T14:01:41.438Z,101950.50
2022-07-28T14:04:14.640Z,101951.41
2022-07-28T14:06:45.021Z,101944.16
2022-07-28T14:09:12.979Z,101941.69
2022-07-28T14:11:49.901Z,101948.34
2022-07-28T14:14:24.065Z,101940.50
2022-07-28T14:16:54.202Z,101935.28
2022-07-28T14:19:23.651Z,101936.13
2022-07-28T14:22:10.469Z,101942.22
2022-07-28T14:24:39.711Z,101932.84
2022-07-28T14:27:06.208Z,101931.69
2022-07-28T14:29:32.916Z,101938.34
2022-07-28T14:31:59.537Z,101935.28
2022-07-28T14:34:26.234Z,101935.19
2022-07-28T14:36:53.227Z,101928.84
2022-07-28T14:39:19.878Z,101930.53
2022-07-28T14:41:46.387Z,101934.38
2022-07-28T14:44:24.712Z,101938.81
2022-07-28T14:46:51.774Z,101927.47
2022-07-28T14:49:18.945Z,101934.50
2022-07-28T14:51:45.996Z,101930.88
2022-07-28T14:54:12.875Z,101924.81
2022-07-28T14:56:39.692Z,101925.34
2022-07-28T14:59:06.378Z,101924.84
2022-07-28T15:01:35.984Z,101919.50
2022-07-28T15:04:03.136Z,101924.78
2022-07-28T15:06:29.741Z,101925.00
2022-07-28T15:08:57.784Z,101924.44
2022-07-28T15:11:24.601Z,101924.66
2022-07-28T15:13:51.138Z,101921.91
2022-07-28T15:16:17.771Z,101922.16
2022-07-28T15:18:45.087Z,101912.63
2022-07-28T15:21:16.495Z,101916.38
2022-07-28T15:23:43.579Z,101921.13
2022-07-28T15:26:10.488Z,101907.69
2022-07-28T15:28:37.437Z,101910.78
2022-07-28T15:31:05.396Z,101898.66
2022-07-28T15:33:45.341Z,101913.50
2022-07-28T15:36:17.423Z,101906.59
2022-07-28T15:38:47.458Z,101901.69
2022-07-28T15:41:16.235Z,101902.84
2022-07-28T15:43:43.702Z,101895.94
2022-07-28T15:46:16.061Z,101900.69
2022-07-28T15:48:44.564Z,101893.56
2022-07-28T15:51:11.541Z,101896.59
2022-07-28T15:53:38.757Z,101897.97
2022-07-28T15:56:05.801Z,101903.00
2022-07-28T15:58:32.422Z,101895.81
2022-07-28T16:01:01.120Z,101890.56
2022-07-28T16:03:29.582Z,101890.53
2022-07-28T16:05:56.289Z,101896.09
2022-07-28T16:08:23.515Z,101891.91
2022-07-28T16:10:52.466Z,101890.53
2022-07-28T16:13:35.985Z,101884.97
2022-07-28T16:16:04.540Z,101886.66
2022-07-28T16:18:32.033Z,101882.75
2022-07-28T16:20:58.637Z,101882.75
2022-07-28T16:23:25.181Z,101884.09
2022-07-28T16:25:51.798Z,101885.19
2022-07-28T16:28:18.305Z,101887.72
2022-07-28T16:30:45.086Z,101884.47
2022-07-28T16:33:11.637Z,101884.63
2022-07-28T16:35:38.341Z,101887.28
2022-07-28T16:38:06.398Z,101886.31
2022-07-28T16:40:33.736Z,101886.22
2022-07-28T16:43:06.143Z,101882.25
2022-07-28T16:45:36.881Z,101885.19
2022-07-28T16:48:04.094Z,101880.31
2022-07-28T16:50:32.538Z,101882.00
2022-07-28T16:53:00.031Z,101887.47
2022-07-28T16:55:27.125Z,101884.28
2022-07-28T16:57:54.240Z,101885.22
2022-07-28T17:00:21.547Z,101877.59
2022-07-28T17:02:48.094Z,101885.44
2022-07-28T17:05:14.618Z,101889.91
2022-07-28T17:07:45.876Z,101873.94
2022-07-28T17:10:14.088Z,101892.16
2022-07-28T17:12:40.811Z,101887.53
2022-07-28T17:15:07.956Z,101887.19
2022-07-28T17:17:49.138Z,101880.03
2022-07-28T17:20:16.702Z,101883.91
2022-07-28T17:22:46.647Z,101886.84
2022-07-28T17:25:52.391Z,101886.16
2022-07-28T17:28:00.371Z,101883.06
2022-07-28T17:30:29.699Z,101871.03
2022-07-28T17:32:58.926Z,101880.56
2022-07-28T17:35:34.351Z,101876.97
2022-07-28T17:38:03.433Z,101878.31
2022-07-28T17:40:30.164Z,101881.47
2022-07-28T17:42:56.734Z,101876.06
2022-07-28T17:45:24.374Z,101872.63
2022-07-28T17:47:51.159Z,101878.75
2022-07-28T17:50:17.873Z,101879.06
2022-07-28T17:52:45.327Z,101880.47
2022-07-28T17:55:34.509Z,101890.94
2022-07-28T17:58:19.285Z,101886.03
2022-07-28T18:00:51.559Z,101882.47
2022-07-28T18:03:18.342Z,101890.47
2022-07-28T18:05:45.077Z,101880.78
2022-07-28T18:08:12.553Z,101885.50
2022-07-28T18:10:40.010Z,101880.06
2022-07-28T18:13:07.512Z,101881.53
2022-07-28T18:15:35.831Z,101880.69
2022-07-28T18:18:03.773Z,101878.72
2022-07-28T18:20:30.919Z,101882.16
2022-07-28T18:22:58.149Z,101869.91
2022-07-28T18:25:25.990Z,101876.84
2022-07-28T18:27:53.807Z,101877.59
2022-07-28T18:30:20.462Z,101876.16
2022-07-28T18:32:47.310Z,101868.03
2022-07-28T18:35:14.405Z,101876.44
2022-07-28T18:37:45.488Z,101876.84
2022-07-28T18:40:13.790Z,101867.59
2022-07-28T18:42:41.685Z,101861.38
2022-07-28T18:45:09.023Z,101864.25
2022-07-28T18:47:37.542Z,101865.53
2022-07-28T18:50:30.660Z,101869.38
2022-07-28T18:52:58.611Z,101859.38
2022-07-28T18:55:25.701Z,101873.63
2022-07-28T18:57:52.305Z,101864.97
2022-07-28T19:00:18.786Z,101871.56
2022-07-28T19:02:45.500Z,101866.72
2022-07-28T19:05:12.139Z,101870.97
2022-07-28T19:07:38.944Z,101871.28
2022-07-28T19:10:06.712Z,101877.50
2022-07-28T19:12:34.243Z,101871.34
2022-07-28T19:15:01.591Z,101880.34
2022-07-28T19:17:28.727Z,101868.81
2022-07-28T19:19:56.373Z,101874.16
2022-07-28T19:22:24.019Z,101875.84
2022-07-28T19:24:51.978Z,101873.81
2022-07-28T19:27:20.239Z,101869.69
2022-07-28T19:29:47.044Z,101873.69
2022-07-28T19:32:13.842Z,101866.84
2022-07-28T19:34:41.823Z,101869.50
2022-07-28T19:37:08.509Z,101868.81
2022-07-28T19:39:45.938Z,101873.84
2022-07-28T19:42:13.110Z,101873.81
2022-07-28T19:44:41.377Z,101875.59
2022-07-28T19:47:08.786Z,101876.97
2022-07-28T19:49:35.314Z,101880.13
2022-07-28T19:52:02.257Z,101891.56
2022-07-28T19:54:29.359Z,101890.41
2022-07-28T19:56:56.009Z,101891.03
2022-07-28T19:59:22.732Z,101895.94
2022-07-28T20:01:50.550Z,101888.09
2022-07-28T20:04:17.782Z,101885.19
2022-07-28T20:06:44.560Z,101897.88
2022-07-28T20:09:11.510Z,101905.38
2022-07-28T20:11:39.021Z,101900.16
2022-07-28T20:14:05.619Z,101898.16
2022-07-28T20:16:32.784Z,101896.03
2022-07-28T20:18:59.659Z,101895.44
2022-07-28T20:21:26.853Z,101891.63
2022-07-28T20:23:57.273Z,101893.41
2022-07-28T20:26:26.138Z,101900.44
2022-07-28T20:28:58.577Z,101895.94
2022-07-28T20:31:25.700Z,101891.41
2022-07-28T20:33:52.906Z,101893.91
2022-07-28T20:36:19.573Z,101889.25
2022-07-28T20:38:46.095Z,101895.47
2022-07-28T20:41:13.415Z,101896.91
2022-07-28T20:43:40.652Z,101894.50
2022-07-28T20:46:07.916Z,101898.09
2022-07-28T20:48:35.069Z,101897.88
2022-07-28T20:51:01.811Z,101901.69
2022-07-28T20:53:28.395Z,101909.19
2022-07-28T20:55:54.962Z,101903.34
2022-07-28T20:58:21.500Z,101901.22
2022-07-28T21:00:50.594Z,101908.59
2022-07-28T21:03:17.187Z,101902.66
2022-07-28T21:05:44.358Z,101901.66
2022-07-28T21:08:16.280Z,101898.56
2022-07-28T21:10:44.684Z,101904.78
2022-07-28T21:13:11.255Z,101908.91
2022-07-28T21:15:37.815Z,101909.16
2022-07-28T21:18:05.307Z,101911.03
2022-07-28T21:20:32.079Z,101913.94
2022-07-28T21:22:58.659Z,101908.13
2022-07-28T21:25:26.071Z,101918.81
2022-07-28T21:28:11.540Z,101916.47
2022-07-28T21:30:38.549Z,101913.19
2022-07-28T21:33:05.276Z,101905.72
2022-07-28T21:35:32.243Z,101908.16
2022-07-28T21:37:58.910Z,101910.44
2022-07-28T21:40:26.337Z,101907.09
2022-07-28T21:42:52.891Z,101916.72
2022-07-28T21:45:19.826Z,101918.16
2022-07-28T21:47:46.928Z,101924.50
2022-07-28T21:50:14.122Z,101914.88
2022-07-28T21:52:40.682Z,101928.88
2022-07-28T21:55:08.918Z,101918.50
2022-07-28T21:57:36.308Z,101927.28
2022-07-28T22:00:06.557Z,101924.84
2022-07-28T22:02:33.326Z,101924.09
2022-07-28T22:05:00.728Z,101919.31
2022-07-28T22:07:27.342Z,101934.09
2022-07-28T22:09:53.845Z,101931.53
2022-07-28T22:12:20.868Z,101925.22
2022-07-28T22:14:47.383Z,101928.63
2022-07-28T22:17:13.912Z,101939.63
2022-07-28T22:19:40.481Z,101931.69
2022-07-28T22:22:07.035Z,101930.16
2022-07-28T22:24:33.583Z,101932.97
2022-07-28T22:27:00.210Z,101941.97
2022-07-28T22:29:27.991Z,101930.88
2022-07-28T22:31:59.601Z,101943.28
2022-07-28T22:34:26.582Z,101935.66
2022-07-28T22:36:53.095Z,101940.19
2022-07-28T22:39:19.602Z,101932.06
2022-07-28T22:41:47.006Z,101939.13
2022-07-28T22:44:13.810Z,101944.00
2022-07-28T22:46:41.530Z,101945.19
2022-07-28T22:49:08.174Z,101942.63
2022-07-28T22:51:34.740Z,101940.81
2022-07-28T22:54:01.343Z,101941.75
2022-07-28T22:56:27.857Z,101941.34
2022-07-28T22:59:02.223Z,101944.31
2022-07-28T23:01:28.808Z,101937.44
2022-07-28T23:03:55.429Z,101940.72
2022-07-28T23:06:22.090Z,101941.22
2022-07-28T23:08:48.617Z,101941.69
2022-07-28T23:11:15.173Z,101951.34
2022-07-28T23:13:41.792Z,101952.63
2022-07-28T23:16:13.059Z,101948.47
2022-07-28T23:18:43.671Z,101947.63
2022-07-28T23:21:11.154Z,101951.44
2022-07-28T23:23:38.614Z,101954.38
2022-07-28T23:26:05.755Z,101957.13
2022-07-28T23:28:36.374Z,101957.53
2022-07-28T23:31:04.460Z,101954.19
2022-07-28T23:33:55.561Z,101953.75
2022-07-28T23:36:26.630Z,101950.81
2022-07-28T23:38:58.915Z,101951.44
2022-07-28T23:41:26.550Z,101956.88
2022-07-28T23:43:53.387Z,101954.38
2022-07-28T23:46:20.030Z,101960.25
2022-07-28T23:48:46.626Z,101959.41
2022-07-28T23:51:14.136Z,101956.88
2022-07-28T23:53:43.834Z,101960.66
2022-07-28T23:56:10.372Z,101955.81
2022-07-28T23:58:37.021Z,101952.88
